createdAt,value
2022-11-20T00:01:23.378Z,29.23
2022-11-20T00:04:28.553Z,29.03
2022-11-20T00:07:35.604Z,28.95
2022-11-20T00:10:39.444Z,28.69
2022-11-20T00:13:43.755Z,28.70
2022-11-20T00:17:07.967Z,28.59
2022-11-20T00:20:12.518Z,28.42
2022-11-20T00:23:42.851Z,28.93
2022-11-20T00:26:46.069Z,28.86
2022-11-20T00:29:51.492Z,28.57
2022-11-20T00:32:54.960Z,27.69
2022-11-20T00:36:01.065Z,27.97
2022-11-20T00:39:16.556Z,28.29
2022-11-20T00:42:36.226Z,28.17
2022-11-20T00:46:30.596Z,28.09
2022-11-20T00:49:35.441Z,28.24
2022-11-20T00:52:39.550Z,27.88
2022-11-20T00:55:54.400Z,27.97
2022-11-20T00:59:12.762Z,27.87
2022-11-20T01:02:14.775Z,27.44
2022-11-20T01:05:20.400Z,27.45
2022-11-20T01:08:34.546Z,27.57
2022-11-20T01:11:52.583Z,27.54
2022-11-20T01:15:02.679Z,27.51
2022-11-20T01:18:14.571Z,27.47
2022-11-20T01:21:31.327Z,27.61
2022-11-20T01:24:36.230Z,27.38
2022-11-20T01:27:52.064Z,27.38
2022-11-20T01:36:16.345Z,27.38
2022-11-20T01:44:31.732Z,27.37
2022-11-20T01:47:57.809Z,26.79
2022-11-20T01:51:08.270Z,27.20
2022-11-20T01:54:21.976Z,28.10
2022-11-20T01:58:36.768Z,27.55
2022-11-20T02:01:48.730Z,26.97
2022-11-20T02:04:56.527Z,27.11
2022-11-20T02:08:04.127Z,26.55
2022-11-20T02:11:07.406Z,26.30
2022-11-20T02:14:11.779Z,26.22
2022-11-20T02:17:19.334Z,26.24
2022-11-20T02:20:29.860Z,26.17
2022-11-20T02:24:15.729Z,26.29
2022-11-20T02:27:32.794Z,26.26
2022-11-20T02:30:35.647Z,26.09
2022-11-20T02:33:40.085Z,26.03
2022-11-20T02:36:49.346Z,26.01
2022-11-20T02:40:02.959Z,26.05
2022-11-20T02:43:37.672Z,26.01
2022-11-20T02:47:15.655Z,26.00
2022-11-20T02:50:25.641Z,25.78
2022-11-20T02:53:36.731Z,25.71
2022-11-20T02:56:51.047Z,25.84
2022-11-20T03:00:36.906Z,26.00
2022-11-20T03:33:24.347Z,25.98
2022-11-20T04:07:59.926Z,25.56
2022-11-20T04:11:04.727Z,25.31
2022-11-20T04:14:18.612Z,25.21
2022-11-20T04:17:34.571Z,25.07
2022-11-20T04:24:44.777Z,25.11
2022-11-20T04:27:47.251Z,24.92
2022-11-20T04:31:11.185Z,25.20
2022-11-20T04:34:35.432Z,24.98
2022-11-20T04:37:51.365Z,25.54
2022-11-20T04:41:45.001Z,25.63
2022-11-20T04:45:07.957Z,25.70
2022-11-20T04:48:15.191Z,25.55
2022-11-20T04:55:20.567Z,25.77
2022-11-20T05:02:57.029Z,25.76
2022-11-20T05:06:25.158Z,25.33
2022-11-20T06:31:45.001Z,24.69
2022-11-20T06:48:25.044Z,24.91
2022-11-20T07:53:05.102Z,26.55
2022-11-20T07:57:47.382Z,26.63
2022-11-20T08:40:32.575Z,27.83
2022-11-20T08:43:58.596Z,27.78
2022-11-20T08:47:03.629Z,27.66
2022-11-20T08:50:09.017Z,27.53
2022-11-20T08:53:25.136Z,26.85
2022-11-20T08:56:28.535Z,26.79
2022-11-20T09:00:03.961Z,26.72
2022-11-20T09:03:00.446Z,27.27
2022-11-20T09:06:06.184Z,27.64
2022-11-20T09:09:15.264Z,27.70
2022-11-20T09:12:24.835Z,27.71
2022-11-20T09:15:31.219Z,27.70
2022-11-20T09:18:57.809Z,27.68
2022-11-20T09:22:32.696Z,27.71
2022-11-20T09:25:40.556Z,27.66
2022-11-20T09:28:55.389Z,27.54
2022-11-20T09:32:01.947Z,27.55
2022-11-20T09:38:50.028Z,27.62
2022-11-20T09:42:29.561Z,27.64
2022-11-20T09:46:05.950Z,27.60
2022-11-20T09:49:35.484Z,27.45
2022-11-20T09:53:11.044Z,27.63
2022-11-20T09:56:27.514Z,27.45
2022-11-20T10:00:23.530Z,27.35
2022-11-20T10:03:39.527Z,27.19
2022-11-20T10:06:59.629Z,26.52
2022-11-20T10:10:39.711Z,26.21
2022-11-20T10:14:06.052Z,26.10
2022-11-20T10:17:17.464Z,26.08
2022-11-20T10:20:47.612Z,26.12
2022-11-20T10:24:27.993Z,26.23
2022-11-20T10:28:08.444Z,26.28
2022-11-20T10:31:27.989Z,26.23
2022-11-20T11:35:15.192Z,25.80
2022-11-20T11:38:24.017Z,25.74
2022-11-20T11:41:39.672Z,25.56
2022-11-20T11:45:08.646Z,25.47
2022-11-20T11:48:18.412Z,25.53
2022-11-20T11:51:24.667Z,25.56
2022-11-20T11:54:50.791Z,25.57
2022-11-20T11:58:52.709Z,25.62
2022-11-20T12:02:47.986Z,25.42
2022-11-20T12:06:25.173Z,25.21
2022-11-20T12:10:13.541Z,25.08
2022-11-20T12:14:15.169Z,25.09
2022-11-20T12:21:00.136Z,24.90
2022-11-20T12:32:48.457Z,24.66
2022-11-20T12:40:04.209Z,24.63
2022-11-20T12:43:46.793Z,25.30
2022-11-20T12:47:18.215Z,25.74
2022-11-20T12:50:32.396Z,24.71
2022-11-20T12:54:08.805Z,24.69
2022-11-20T12:57:23.493Z,24.69
2022-11-20T13:00:40.303Z,24.67
2022-11-20T13:04:12.270Z,24.60
2022-11-20T13:07:34.441Z,24.51
2022-11-20T13:10:43.729Z,24.33
2022-11-20T13:14:08.109Z,23.88
2022-11-20T13:17:20.390Z,23.83
2022-11-20T13:20:38.729Z,23.66
2022-11-20T13:23:44.320Z,23.63
2022-11-20T13:26:55.684Z,23.72
2022-11-20T13:30:32.349Z,23.95
2022-11-20T13:33:42.197Z,23.99
2022-11-20T13:36:52.045Z,24.53
2022-11-20T13:40:00.110Z,24.02
2022-11-20T13:43:22.468Z,24.06
2022-11-20T13:46:32.188Z,24.17
2022-11-20T13:49:45.521Z,24.48
2022-11-20T13:53:10.884Z,24.70
2022-11-20T13:56:31.785Z,24.85
2022-11-20T14:00:14.721Z,24.97
2022-11-20T14:04:07.386Z,25.71
2022-11-20T14:07:20.664Z,25.09
2022-11-20T14:10:44.408Z,25.08
2022-11-20T14:13:57.543Z,25.05
2022-11-20T14:17:18.494Z,25.21
2022-11-20T14:20:32.118Z,25.36
2022-11-20T14:24:07.326Z,25.53
2022-11-20T14:27:16.355Z,25.42
2022-11-20T14:30:47.701Z,25.42
2022-11-20T14:33:52.675Z,25.37
2022-11-20T14:37:01.432Z,25.13
2022-11-20T14:40:16.601Z,24.98
2022-11-20T14:43:44.820Z,24.99
2022-11-20T14:50:44.593Z,25.00
2022-11-20T14:53:51.557Z,24.95
2022-11-20T14:57:04.143Z,24.82
2022-11-20T15:00:18.044Z,24.69
2022-11-20T15:03:49.445Z,24.88
2022-11-20T15:07:13.378Z,25.07
2022-11-20T15:10:25.418Z,25.45
2022-11-20T15:14:00.479Z,25.88
2022-11-20T15:17:12.542Z,25.78
2022-11-20T15:20:40.425Z,25.91
2022-11-20T15:24:20.432Z,26.24
2022-11-20T15:27:28.624Z,26.40
2022-11-20T15:30:36.833Z,26.64
2022-11-20T15:34:00.458Z,26.62
2022-11-20T15:37:03.884Z,26.70
2022-11-20T15:40:08.282Z,26.89
2022-11-20T15:43:14.027Z,26.81
2022-11-20T15:46:42.827Z,26.89
2022-11-20T15:49:41.007Z,26.94
2022-11-20T15:52:45.277Z,26.86
2022-11-20T15:55:59.019Z,27.14
2022-11-20T15:59:07.820Z,27.55
2022-11-20T16:02:22.659Z,28.10
2022-11-20T16:05:36.106Z,28.53
2022-11-20T16:08:40.235Z,28.60
2022-11-20T16:11:52.185Z,28.42
2022-11-20T16:15:17.340Z,28.02
2022-11-20T16:18:20.739Z,27.71
2022-11-20T16:21:30.779Z,27.59
2022-11-20T16:24:35.691Z,27.58
2022-11-20T16:27:43.645Z,27.75
2022-11-20T16:30:50.809Z,27.74
2022-11-20T16:33:56.765Z,28.60
2022-11-20T16:37:00.989Z,29.77
2022-11-20T16:40:05.174Z,30.44
2022-11-20T16:43:11.970Z,30.90
2022-11-20T16:46:20.528Z,30.97
2022-11-20T16:49:28.458Z,31.26
2022-11-20T16:52:32.454Z,32.01
2022-11-20T16:55:50.783Z,32.91
2022-11-20T16:59:11.871Z,33.30
2022-11-20T17:02:17.153Z,33.56
2022-11-20T17:05:20.737Z,33.87
2022-11-20T17:08:26.533Z,33.10
2022-11-20T17:11:58.279Z,32.00
2022-11-20T17:15:03.728Z,30.86
2022-11-20T17:18:07.419Z,30.23
2022-11-20T17:21:15.627Z,30.57
2022-11-20T17:24:31.619Z,30.99
2022-11-20T17:27:46.898Z,30.86
2022-11-20T17:30:58.360Z,30.40
2022-11-20T17:34:10.393Z,30.03
2022-11-20T17:37:22.758Z,30.64
2022-11-20T17:40:36.766Z,29.65
2022-11-20T17:43:45.694Z,29.29
2022-11-20T17:47:04.945Z,28.91
2022-11-20T17:50:36.680Z,29.35
2022-11-20T17:53:47.890Z,29.26
2022-11-20T17:57:16.560Z,29.60
2022-11-20T18:05:07.438Z,30.91
2022-11-20T18:08:16.927Z,31.49
2022-11-20T18:37:15.009Z,28.44
2022-11-20T18:41:16.814Z,28.36
2022-11-20T18:44:56.761Z,28.00
2022-11-20T18:48:05.676Z,27.77
2022-11-20T18:51:43.274Z,27.38
2022-11-20T18:55:23.828Z,27.55
2022-11-20T18:58:31.968Z,27.61
2022-11-20T19:01:48.705Z,27.19
2022-11-20T19:05:25.752Z,27.22
2022-11-20T19:09:12.750Z,27.13
2022-11-20T19:16:08.941Z,27.00
2022-11-20T19:30:21.069Z,28.12
2022-11-20T19:35:22.858Z,27.93
2022-11-20T19:39:23.571Z,27.66
2022-11-20T19:43:27.068Z,27.77
2022-11-20T20:01:00.104Z,26.82
2022-11-20T20:41:00.705Z,27.04
2022-11-20T20:44:34.231Z,26.83
2022-11-20T20:47:48.933Z,26.86
2022-11-20T20:51:16.681Z,26.91
2022-11-20T20:54:31.620Z,26.93
2022-11-20T20:57:40.847Z,26.88
2022-11-20T21:05:08.714Z,26.85
2022-11-20T21:08:32.019Z,26.71
2022-11-20T21:11:36.919Z,26.53
2022-11-20T21:14:40.289Z,26.37
2022-11-20T21:18:11.290Z,26.37
2022-11-20T21:40:40.034Z,26.28
2022-11-20T21:43:44.472Z,26.19
2022-11-20T21:46:50.458Z,26.17
2022-11-20T21:49:59.423Z,26.07
2022-11-20T21:53:17.146Z,26.10
2022-11-20T21:56:20.799Z,25.97
2022-11-20T21:59:34.915Z,26.02
2022-11-20T22:02:47.276Z,26.01
2022-11-20T22:06:00.339Z,26.52
2022-11-20T22:09:24.934Z,25.99
2022-11-20T22:12:44.969Z,26.34
2022-11-20T22:16:03.034Z,26.41
2022-11-20T22:33:59.460Z,25.95
2022-11-20T22:37:08.920Z,25.76
2022-11-20T22:40:20.218Z,25.69
2022-11-20T22:43:34.856Z,25.71
2022-11-20T22:46:54.893Z,25.74
2022-11-20T22:50:01.395Z,25.69
2022-11-20T22:57:12.193Z,25.64
2022-11-20T23:01:16.594Z,25.68
2022-11-20T23:04:21.310Z,25.49
2022-11-20T23:07:24.705Z,25.38
2022-11-20T23:10:40.846Z,25.36
2022-11-20T23:32:16.637Z,25.32
2022-11-20T23:35:29.699Z,25.07
2022-11-20T23:38:34.402Z,24.96
2022-11-20T23:41:41.069Z,24.86
2022-11-20T23:44:55.433Z,24.77
2022-11-20T23:48:04.080Z,24.75
2022-11-20T23:51:13.732Z,24.76
